sensor_id;sensor_type;location;lat;lon;timestamp;P1;durP1;ratioP1;P2;durP2;ratioP2
2896;SDS011;1458;49.728;9.228;2023-07-31T00:00:29;1.73;;;1.73;;
2896;SDS011;1458;49.728;9.228;2023-07-31T00:02:58;2.00;;;2.00;;
2896;SDS011;1458;49.728;9.228;2023-07-31T00:05:25;2.00;;;2.00;;
2896;SDS011;1458;49.728;9.228;2023-07-31T00:07:52;2.10;;;2.10;;
2896;SDS011;1458;49.728;9.228;2023-07-31T00:10:20;1.90;;;1.90;;
2896;SDS011;1458;49.728;9.228;2023-07-31T00:12:48;2.30;;;2.30;;
2896;SDS011;1458;49.728;9.228;2023-07-31T00:15:15;2.17;;;2.17;;
2896;SDS011;1458;49.728;9.228;2023-07-31T00:17:42;1.70;;;1.70;;
2896;SDS011;1458;49.728;9.228;2023-07-31T00:20:11;1.80;;;1.80;;
2896;SDS011;1458;49.728;9.228;2023-07-31T00:22:39;1.50;;;1.50;;
2896;SDS011;1458;49.728;9.228;2023-07-31T00:25:06;1.80;;;1.80;;
2896;SDS011;1458;49.728;9.228;2023-07-31T00:27:34;1.90;;;1.90;;
2896;SDS011;1458;49.728;9.228;2023-07-31T00:30:02;1.70;;;1.70;;
2896;SDS011;1458;49.728;9.228;2023-07-31T00:32:32;1.70;;;1.70;;
2896;SDS011;1458;49.728;9.228;2023-07-31T00:34:59;1.90;;;1.90;;
2896;SDS011;1458;49.728;9.228;2023-07-31T00:37:31;2.60;;;2.60;;
2896;SDS011;1458;49.728;9.228;2023-07-31T00:39:58;2.40;;;2.40;;
2896;SDS011;1458;49.728;9.228;2023-07-31T00:42:26;2.93;;;2.93;;
2896;SDS011;1458;49.728;9.228;2023-07-31T00:44:53;2.70;;;2.70;;
2896;SDS011;1458;49.728;9.228;2023-07-31T00:47:21;3.47;;;3.47;;
2896;SDS011;1458;49.728;9.228;2023-07-31T00:49:48;3.47;;;3.47;;
2896;SDS011;1458;49.728;9.228;2023-07-31T00:52:16;3.50;;;3.50;;
2896;SDS011;1458;49.728;9.228;2023-07-31T00:54:45;3.73;;;3.73;;
2896;SDS011;1458;49.728;9.228;2023-07-31T00:57:13;3.80;;;3.80;;
2896;SDS011;1458;49.728;9.228;2023-07-31T00:59:40;3.83;;;3.83;;
2896;SDS011;1458;49.728;9.228;2023-07-31T01:02:08;3.80;;;3.80;;
2896;SDS011;1458;49.728;9.228;2023-07-31T01:04:35;3.90;;;3.90;;
2896;SDS011;1458;49.728;9.228;2023-07-31T01:07:04;3.93;;;3.93;;
2896;SDS011;1458;49.728;9.228;2023-07-31T01:09:40;4.17;;;4.17;;
2896;SDS011;1458;49.728;9.228;2023-07-31T01:12:16;4.30;;;4.30;;
2896;SDS011;1458;49.728;9.228;2023-07-31T01:15:01;4.80;;;4.80;;
2896;SDS011;1458;49.728;9.228;2023-07-31T01:17:30;5.13;;;5.13;;
2896;SDS011;1458;49.728;9.228;2023-07-31T01:19:59;5.00;;;5.00;;
2896;SDS011;1458;49.728;9.228;2023-07-31T01:22:31;4.80;;;4.80;;
2896;SDS011;1458;49.728;9.228;2023-07-31T01:25:20;5.30;;;5.30;;
2896;SDS011;1458;49.728;9.228;2023-07-31T01:28:23;4.97;;;4.97;;
2896;SDS011;1458;49.728;9.228;2023-07-31T01:30:58;5.43;;;5.43;;
2896;SDS011;1458;49.728;9.228;2023-07-31T01:33:29;5.23;;;5.23;;
2896;SDS011;1458;49.728;9.228;2023-07-31T01:35:57;5.50;;;5.50;;
2896;SDS011;1458;49.728;9.228;2023-07-31T01:38:25;5.50;;;5.50;;
2896;SDS011;1458;49.728;9.228;2023-07-31T01:40:54;5.70;;;5.70;;
2896;SDS011;1458;49.728;9.228;2023-07-31T01:43:24;6.03;;;6.03;;
2896;SDS011;1458;49.728;9.228;2023-07-31T01:45:52;6.27;;;6.27;;
2896;SDS011;1458;49.728;9.228;2023-07-31T01:48:20;5.80;;;5.80;;
2896;SDS011;1458;49.728;9.228;2023-07-31T01:50:47;6.47;;;6.40;;
2896;SDS011;1458;49.728;9.228;2023-07-31T01:53:14;6.10;;;6.10;;
2896;SDS011;1458;49.728;9.228;2023-07-31T01:55:42;6.50;;;6.40;;
2896;SDS011;1458;49.728;9.228;2023-07-31T01:58:11;5.90;;;5.90;;
2896;SDS011;1458;49.728;9.228;2023-07-31T02:00:38;6.30;;;6.30;;
2896;SDS011;1458;49.728;9.228;2023-07-31T02:03:05;6.80;;;6.70;;
2896;SDS011;1458;49.728;9.228;2023-07-31T02:05:33;6.70;;;6.60;;
2896;SDS011;1458;49.728;9.228;2023-07-31T02:08:00;6.70;;;6.60;;
2896;SDS011;1458;49.728;9.228;2023-07-31T02:10:28;7.07;;;6.97;;
2896;SDS011;1458;49.728;9.228;2023-07-31T02:12:55;6.90;;;6.80;;
2896;SDS011;1458;49.728;9.228;2023-07-31T02:15:24;6.87;;;6.77;;
2896;SDS011;1458;49.728;9.228;2023-07-31T02:17:52;7.33;;;7.23;;
2896;SDS011;1458;49.728;9.228;2023-07-31T02:20:19;7.10;;;7.00;;
2896;SDS011;1458;49.728;9.228;2023-07-31T02:22:46;7.10;;;7.00;;
2896;SDS011;1458;49.728;9.228;2023-07-31T02:25:14;7.00;;;6.90;;
2896;SDS011;1458;49.728;9.228;2023-07-31T02:27:42;7.27;;;7.17;;
2896;SDS011;1458;49.728;9.228;2023-07-31T02:30:10;7.10;;;7.00;;
2896;SDS011;1458;49.728;9.228;2023-07-31T02:32:39;7.30;;;7.20;;
2896;SDS011;1458;49.728;9.228;2023-07-31T02:35:07;6.90;;;6.80;;
2896;SDS011;1458;49.728;9.228;2023-07-31T02:37:35;6.80;;;6.70;;
2896;SDS011;1458;49.728;9.228;2023-07-31T02:40:04;6.53;;;6.53;;
2896;SDS011;1458;49.728;9.228;2023-07-31T02:42:33;7.17;;;7.07;;
2896;SDS011;1458;49.728;9.228;2023-07-31T02:45:00;6.83;;;6.73;;
2896;SDS011;1458;49.728;9.228;2023-07-31T02:47:28;7.13;;;7.03;;
2896;SDS011;1458;49.728;9.228;2023-07-31T02:49:56;7.20;;;7.10;;
2896;SDS011;1458;49.728;9.228;2023-07-31T02:52:24;7.10;;;7.00;;
2896;SDS011;1458;49.728;9.228;2023-07-31T02:54:52;7.10;;;7.00;;
2896;SDS011;1458;49.728;9.228;2023-07-31T02:57:19;7.13;;;7.03;;
2896;SDS011;1458;49.728;9.228;2023-07-31T02:59:46;7.37;;;7.27;;
2896;SDS011;1458;49.728;9.228;2023-07-31T03:02:14;7.20;;;7.10;;
2896;SDS011;1458;49.728;9.228;2023-07-31T03:04:41;6.90;;;6.80;;
2896;SDS011;1458;49.728;9.228;2023-07-31T03:07:10;7.20;;;7.10;;
2896;SDS011;1458;49.728;9.228;2023-07-31T03:09:38;7.20;;;7.10;;
2896;SDS011;1458;49.728;9.228;2023-07-31T03:12:06;7.60;;;7.50;;
2896;SDS011;1458;49.728;9.228;2023-07-31T03:14:35;6.80;;;6.70;;
2896;SDS011;1458;49.728;9.228;2023-07-31T03:17:03;7.10;;;7.00;;
2896;SDS011;1458;49.728;9.228;2023-07-31T03:19:31;7.10;;;7.00;;
2896;SDS011;1458;49.728;9.228;2023-07-31T03:21:58;6.97;;;6.87;;
2896;SDS011;1458;49.728;9.228;2023-07-31T03:24:29;7.40;;;7.30;;
2896;SDS011;1458;49.728;9.228;2023-07-31T03:26:57;7.30;;;7.20;;
2896;SDS011;1458;49.728;9.228;2023-07-31T03:29:26;7.07;;;6.97;;
2896;SDS011;1458;49.728;9.228;2023-07-31T03:31:53;7.20;;;7.10;;
2896;SDS011;1458;49.728;9.228;2023-07-31T03:34:21;6.80;;;6.70;;
2896;SDS011;1458;49.728;9.228;2023-07-31T03:36:48;6.60;;;6.60;;
2896;SDS011;1458;49.728;9.228;2023-07-31T03:39:15;7.13;;;7.03;;
2896;SDS011;1458;49.728;9.228;2023-07-31T03:41:44;7.07;;;6.97;;
2896;SDS011;1458;49.728;9.228;2023-07-31T03:44:12;6.90;;;6.80;;
2896;SDS011;1458;49.728;9.228;2023-07-31T03:46:39;6.83;;;6.73;;
2896;SDS011;1458;49.728;9.228;2023-07-31T03:49:07;6.80;;;6.70;;
2896;SDS011;1458;49.728;9.228;2023-07-31T03:51:34;6.97;;;6.87;;
2896;SDS011;1458;49.728;9.228;2023-07-31T03:54:01;6.80;;;6.70;;
2896;SDS011;1458;49.728;9.228;2023-07-31T03:56:29;7.10;;;7.00;;
2896;SDS011;1458;49.728;9.228;2023-07-31T03:58:57;6.90;;;6.80;;
2896;SDS011;1458;49.728;9.228;2023-07-31T04:01:25;7.10;;;7.00;;
2896;SDS011;1458;49.728;9.228;2023-07-31T04:03:53;7.10;;;7.00;;
2896;SDS011;1458;49.728;9.228;2023-07-31T04:06:20;7.10;;;7.00;;
2896;SDS011;1458;49.728;9.228;2023-07-31T04:08:48;6.60;;;6.60;;
2896;SDS011;1458;49.728;9.228;2023-07-31T04:11:15;6.50;;;6.50;;
2896;SDS011;1458;49.728;9.228;2023-07-31T04:13:43;6.80;;;6.70;;
2896;SDS011;1458;49.728;9.228;2023-07-31T04:16:11;6.80;;;6.70;;
2896;SDS011;1458;49.728;9.228;2023-07-31T04:18:39;6.60;;;6.60;;
2896;SDS011;1458;49.728;9.228;2023-07-31T04:21:06;6.70;;;6.60;;
2896;SDS011;1458;49.728;9.228;2023-07-31T04:23:35;7.17;;;7.07;;
2896;SDS011;1458;49.728;9.228;2023-07-31T04:26:02;6.80;;;6.70;;
2896;SDS011;1458;49.728;9.228;2023-07-31T04:28:30;6.80;;;6.70;;
2896;SDS011;1458;49.728;9.228;2023-07-31T04:30:57;6.90;;;6.80;;
2896;SDS011;1458;49.728;9.228;2023-07-31T04:33:26;6.70;;;6.60;;
2896;SDS011;1458;49.728;9.228;2023-07-31T04:35:53;7.00;;;6.90;;
2896;SDS011;1458;49.728;9.228;2023-07-31T04:38:21;6.30;;;6.30;;
2896;SDS011;1458;49.728;9.228;2023-07-31T04:40:48;6.70;;;6.60;;
2896;SDS011;1458;49.728;9.228;2023-07-31T04:43:16;6.40;;;6.40;;
2896;SDS011;1458;49.728;9.228;2023-07-31T04:45:45;6.40;;;6.40;;
2896;SDS011;1458;49.728;9.228;2023-07-31T04:48:13;6.20;;;6.20;;
2896;SDS011;1458;49.728;9.228;2023-07-31T04:50:42;6.47;;;6.47;;
2896;SDS011;1458;49.728;9.228;2023-07-31T04:53:09;6.37;;;6.37;;
2896;SDS011;1458;49.728;9.228;2023-07-31T04:55:37;6.40;;;6.40;;
2896;SDS011;1458;49.728;9.228;2023-07-31T04:58:04;6.70;;;6.60;;
2896;SDS011;1458;49.728;9.228;2023-07-31T05:00:31;6.63;;;6.60;;
2896;SDS011;1458;49.728;9.228;2023-07-31T05:02:58;6.50;;;6.50;;
2896;SDS011;1458;49.728;9.228;2023-07-31T05:05:25;6.50;;;6.50;;
2896;SDS011;1458;49.728;9.228;2023-07-31T05:07:54;6.80;;;6.70;;
2896;SDS011;1458;49.728;9.228;2023-07-31T05:10:22;6.67;;;6.60;;
2896;SDS011;1458;49.728;9.228;2023-07-31T05:12:49;7.00;;;6.90;;
2896;SDS011;1458;49.728;9.228;2023-07-31T05:15:17;6.50;;;6.50;;
2896;SDS011;1458;49.728;9.228;2023-07-31T05:17:44;6.80;;;6.70;;
2896;SDS011;1458;49.728;9.228;2023-07-31T05:20:12;7.00;;;6.90;;
2896;SDS011;1458;49.728;9.228;2023-07-31T05:22:40;6.87;;;6.77;;
2896;SDS011;1458;49.728;9.228;2023-07-31T05:25:09;6.90;;;6.80;;
2896;SDS011;1458;49.728;9.228;2023-07-31T05:27:36;6.50;;;6.50;;
2896;SDS011;1458;49.728;9.228;2023-07-31T05:30:04;6.80;;;6.70;;
2896;SDS011;1458;49.728;9.228;2023-07-31T05:32:33;7.03;;;6.93;;
2896;SDS011;1458;49.728;9.228;2023-07-31T05:35:00;6.50;;;6.50;;
2896;SDS011;1458;49.728;9.228;2023-07-31T05:37:28;6.60;;;6.60;;
2896;SDS011;1458;49.728;9.228;2023-07-31T05:39:56;6.90;;;6.80;;
2896;SDS011;1458;49.728;9.228;2023-07-31T05:42:25;6.80;;;6.70;;
2896;SDS011;1458;49.728;9.228;2023-07-31T05:44:52;6.80;;;6.70;;
2896;SDS011;1458;49.728;9.228;2023-07-31T05:47:19;6.80;;;6.70;;
2896;SDS011;1458;49.728;9.228;2023-07-31T05:49:47;6.80;;;6.70;;
2896;SDS011;1458;49.728;9.228;2023-07-31T05:52:17;7.00;;;6.90;;
2896;SDS011;1458;49.728;9.228;2023-07-31T05:54:45;7.00;;;6.90;;
2896;SDS011;1458;49.728;9.228;2023-07-31T05:57:13;7.37;;;7.27;;
2896;SDS011;1458;49.728;9.228;2023-07-31T05:59:42;7.20;;;7.10;;
2896;SDS011;1458;49.728;9.228;2023-07-31T06:02:09;6.77;;;6.67;;
2896;SDS011;1458;49.728;9.228;2023-07-31T06:04:37;7.13;;;7.03;;
2896;SDS011;1458;49.728;9.228;2023-07-31T06:07:04;6.80;;;6.70;;
2896;SDS011;1458;49.728;9.228;2023-07-31T06:09:32;7.10;;;7.00;;
2896;SDS011;1458;49.728;9.228;2023-07-31T06:11:59;7.33;;;7.23;;
2896;SDS011;1458;49.728;9.228;2023-07-31T06:14:26;6.83;;;6.73;;
2896;SDS011;1458;49.728;9.228;2023-07-31T06:16:55;6.93;;;6.83;;
2896;SDS011;1458;49.728;9.228;2023-07-31T06:19:23;7.10;;;7.00;;
2896;SDS011;1458;49.728;9.228;2023-07-31T06:21:50;7.43;;;7.33;;
2896;SDS011;1458;49.728;9.228;2023-07-31T06:24:17;6.90;;;6.80;;
2896;SDS011;1458;49.728;9.228;2023-07-31T06:26:45;7.13;;;7.03;;
2896;SDS011;1458;49.728;9.228;2023-07-31T06:29:13;7.20;;;7.10;;
2896;SDS011;1458;49.728;9.228;2023-07-31T06:31:40;7.10;;;7.00;;
2896;SDS011;1458;49.728;9.228;2023-07-31T06:34:09;7.50;;;7.40;;
2896;SDS011;1458;49.728;9.228;2023-07-31T06:36:36;7.20;;;7.10;;
2896;SDS011;1458;49.728;9.228;2023-07-31T06:39:04;7.27;;;7.17;;
2896;SDS011;1458;49.728;9.228;2023-07-31T06:41:31;7.10;;;7.00;;
2896;SDS011;1458;49.728;9.228;2023-07-31T06:44:01;6.90;;;6.80;;
2896;SDS011;1458;49.728;9.228;2023-07-31T06:46:28;7.00;;;6.90;;
2896;SDS011;1458;49.728;9.228;2023-07-31T06:48:55;7.60;;;7.50;;
2896;SDS011;1458;49.728;9.228;2023-07-31T06:51:24;7.30;;;7.20;;
2896;SDS011;1458;49.728;9.228;2023-07-31T06:53:52;7.43;;;7.33;;
2896;SDS011;1458;49.728;9.228;2023-07-31T06:56:20;7.60;;;7.50;;
2896;SDS011;1458;49.728;9.228;2023-07-31T06:58:48;7.43;;;7.33;;
2896;SDS011;1458;49.728;9.228;2023-07-31T07:01:15;7.30;;;7.20;;
2896;SDS011;1458;49.728;9.228;2023-07-31T07:03:43;7.50;;;7.40;;
2896;SDS011;1458;49.728;9.228;2023-07-31T07:06:10;7.90;;;7.80;;
2896;SDS011;1458;49.728;9.228;2023-07-31T07:08:39;8.10;;;8.00;;
2896;SDS011;1458;49.728;9.228;2023-07-31T07:11:06;8.00;;;7.90;;
2896;SDS011;1458;49.728;9.228;2023-07-31T07:13:33;8.30;;;8.20;;
2896;SDS011;1458;49.728;9.228;2023-07-31T07:16:01;8.30;;;8.20;;
2896;SDS011;1458;49.728;9.228;2023-07-31T07:18:28;8.30;;;8.20;;
2896;SDS011;1458;49.728;9.228;2023-07-31T07:20:56;8.03;;;7.93;;
2896;SDS011;1458;49.728;9.228;2023-07-31T07:23:23;8.40;;;8.30;;
2896;SDS011;1458;49.728;9.228;2023-07-31T07:25:53;8.30;;;8.20;;
2896;SDS011;1458;49.728;9.228;2023-07-31T07:28:20;8.20;;;8.10;;
2896;SDS011;1458;49.728;9.228;2023-07-31T07:30:50;7.70;;;7.60;;
2896;SDS011;1458;49.728;9.228;2023-07-31T07:33:19;8.10;;;8.00;;
2896;SDS011;1458;49.728;9.228;2023-07-31T07:35:46;8.10;;;8.00;;
2896;SDS011;1458;49.728;9.228;2023-07-31T07:38:14;7.97;;;7.87;;
2896;SDS011;1458;49.728;9.228;2023-07-31T07:40:41;8.30;;;8.20;;
2896;SDS011;1458;49.728;9.228;2023-07-31T07:43:10;8.60;;;8.50;;
2896;SDS011;1458;49.728;9.228;2023-07-31T07:45:38;8.43;;;8.33;;
2896;SDS011;1458;49.728;9.228;2023-07-31T07:48:05;8.07;;;7.97;;
2896;SDS011;1458;49.728;9.228;2023-07-31T07:50:32;7.90;;;7.80;;
2896;SDS011;1458;49.728;9.228;2023-07-31T07:53:00;8.00;;;7.90;;
2896;SDS011;1458;49.728;9.228;2023-07-31T07:55:27;8.00;;;7.90;;
2896;SDS011;1458;49.728;9.228;2023-07-31T07:57:55;8.00;;;7.90;;
2896;SDS011;1458;49.728;9.228;2023-07-31T08:00:24;8.10;;;8.00;;
2896;SDS011;1458;49.728;9.228;2023-07-31T08:02:51;8.80;;;8.60;;
2896;SDS011;1458;49.728;9.228;2023-07-31T08:05:19;8.83;;;8.63;;
2896;SDS011;1458;49.728;9.228;2023-07-31T08:07:46;9.57;;;9.37;;
2896;SDS011;1458;49.728;9.228;2023-07-31T08:10:13;9.87;;;9.67;;
2896;SDS011;1458;49.728;9.228;2023-07-31T08:12:41;9.20;;;9.00;;
2896;SDS011;1458;49.728;9.228;2023-07-31T08:15:08;9.43;;;9.23;;
2896;SDS011;1458;49.728;9.228;2023-07-31T08:17:38;9.33;;;9.13;;
2896;SDS011;1458;49.728;9.228;2023-07-31T08:20:06;9.40;;;9.20;;
2896;SDS011;1458;49.728;9.228;2023-07-31T08:22:34;9.20;;;9.00;;
2896;SDS011;1458;49.728;9.228;2023-07-31T08:25:02;9.10;;;8.90;;
2896;SDS011;1458;49.728;9.228;2023-07-31T08:27:31;9.10;;;8.90;;
2896;SDS011;1458;49.728;9.228;2023-07-31T08:29:58;9.07;;;8.87;;
2896;SDS011;1458;49.728;9.228;2023-07-31T08:32:25;9.50;;;9.30;;
2896;SDS011;1458;49.728;9.228;2023-07-31T08:34:54;9.33;;;9.13;;
2896;SDS011;1458;49.728;9.228;2023-07-31T08:37:21;9.30;;;9.10;;
2896;SDS011;1458;49.728;9.228;2023-07-31T08:39:49;9.80;;;9.60;;
2896;SDS011;1458;49.728;9.228;2023-07-31T08:42:17;10.10;;;9.90;;
2896;SDS011;1458;49.728;9.228;2023-07-31T08:44:44;10.30;;;10.10;;
2896;SDS011;1458;49.728;9.228;2023-07-31T08:47:13;10.03;;;9.83;;
2896;SDS011;1458;49.728;9.228;2023-07-31T08:49:42;9.73;;;9.53;;
2896;SDS011;1458;49.728;9.228;2023-07-31T08:52:14;10.10;;;9.90;;
2896;SDS011;1458;49.728;9.228;2023-07-31T08:54:41;9.57;;;9.37;;
2896;SDS011;1458;49.728;9.228;2023-07-31T08:57:09;9.87;;;9.67;;
2896;SDS011;1458;49.728;9.228;2023-07-31T08:59:38;9.70;;;9.50;;
2896;SDS011;1458;49.728;9.228;2023-07-31T09:02:06;9.27;;;9.07;;
2896;SDS011;1458;49.728;9.228;2023-07-31T09:04:35;9.10;;;8.90;;
2896;SDS011;1458;49.728;9.228;2023-07-31T09:07:03;9.20;;;9.00;;
2896;SDS011;1458;49.728;9.228;2023-07-31T09:09:33;9.60;;;9.40;;
2896;SDS011;1458;49.728;9.228;2023-07-31T09:12:01;9.30;;;9.10;;
2896;SDS011;1458;49.728;9.228;2023-07-31T09:14:29;9.60;;;9.40;;
2896;SDS011;1458;49.728;9.228;2023-07-31T09:16:57;9.20;;;9.00;;
2896;SDS011;1458;49.728;9.228;2023-07-31T09:19:25;9.83;;;9.63;;
2896;SDS011;1458;49.728;9.228;2023-07-31T09:21:55;9.60;;;9.40;;
2896;SDS011;1458;49.728;9.228;2023-07-31T09:24:26;9.53;;;9.33;;
2896;SDS011;1458;49.728;9.228;2023-07-31T09:26:57;10.10;;;9.90;;
2896;SDS011;1458;49.728;9.228;2023-07-31T09:29:26;9.87;;;9.67;;
2896;SDS011;1458;49.728;9.228;2023-07-31T09:31:55;10.13;;;9.93;;
2896;SDS011;1458;49.728;9.228;2023-07-31T09:34:28;10.40;;;10.20;;
2896;SDS011;1458;49.728;9.228;2023-07-31T09:36:58;10.30;;;10.10;;
2896;SDS011;1458;49.728;9.228;2023-07-31T09:39:29;10.60;;;10.30;;
2896;SDS011;1458;49.728;9.228;2023-07-31T09:41:58;10.50;;;10.23;;
2896;SDS011;1458;49.728;9.228;2023-07-31T09:44:38;10.00;;;9.80;;
2896;SDS011;1458;49.728;9.228;2023-07-31T09:47:06;10.43;;;10.20;;
2896;SDS011;1458;49.728;9.228;2023-07-31T09:49:50;10.10;;;9.90;;
2896;SDS011;1458;49.728;9.228;2023-07-31T09:52:18;10.10;;;9.90;;
2896;SDS011;1458;49.728;9.228;2023-07-31T09:54:45;10.30;;;10.10;;
2896;SDS011;1458;49.728;9.228;2023-07-31T09:57:14;10.40;;;10.20;;
2896;SDS011;1458;49.728;9.228;2023-07-31T09:59:45;11.00;;;10.70;;
2896;SDS011;1458;49.728;9.228;2023-07-31T10:02:15;10.90;;;10.60;;
2896;SDS011;1458;49.728;9.228;2023-07-31T10:04:48;10.90;;;10.60;;
2896;SDS011;1458;49.728;9.228;2023-07-31T10:07:17;11.20;;;10.90;;
2896;SDS011;1458;49.728;9.228;2023-07-31T10:09:47;11.00;;;10.70;;
2896;SDS011;1458;49.728;9.228;2023-07-31T10:12:17;11.03;;;10.73;;
2896;SDS011;1458;49.728;9.228;2023-07-31T10:14:48;10.70;;;10.40;;
2896;SDS011;1458;49.728;9.228;2023-07-31T10:17:17;11.10;;;10.80;;
2896;SDS011;1458;49.728;9.228;2023-07-31T10:19:45;11.30;;;11.00;;
2896;SDS011;1458;49.728;9.228;2023-07-31T10:22:14;11.10;;;10.80;;
2896;SDS011;1458;49.728;9.228;2023-07-31T10:24:44;11.00;;;10.70;;
2896;SDS011;1458;49.728;9.228;2023-07-31T10:27:12;11.20;;;10.90;;
2896;SDS011;1458;49.728;9.228;2023-07-31T10:29:43;11.33;;;11.03;;
2896;SDS011;1458;49.728;9.228;2023-07-31T10:32:13;11.40;;;11.10;;
2896;SDS011;1458;49.728;9.228;2023-07-31T10:34:42;11.20;;;10.90;;
2896;SDS011;1458;49.728;9.228;2023-07-31T10:37:20;10.97;;;10.67;;
2896;SDS011;1458;49.728;9.228;2023-07-31T10:39:55;11.20;;;10.90;;
2896;SDS011;1458;49.728;9.228;2023-07-31T10:42:29;11.00;;;10.70;;
2896;SDS011;1458;49.728;9.228;2023-07-31T10:45:01;10.80;;;10.50;;
2896;SDS011;1458;49.728;9.228;2023-07-31T10:47:31;11.20;;;10.90;;
2896;SDS011;1458;49.728;9.228;2023-07-31T10:50:17;11.30;;;11.00;;
2896;SDS011;1458;49.728;9.228;2023-07-31T10:52:46;11.40;;;11.10;;
2896;SDS011;1458;49.728;9.228;2023-07-31T10:55:16;11.60;;;11.30;;
2896;SDS011;1458;49.728;9.228;2023-07-31T10:57:52;11.50;;;11.20;;
2896;SDS011;1458;49.728;9.228;2023-07-31T11:00:23;11.70;;;11.40;;
2896;SDS011;1458;49.728;9.228;2023-07-31T11:05:44;11.53;;;11.23;;
2896;SDS011;1458;49.728;9.228;2023-07-31T11:08:21;11.60;;;11.30;;
2896;SDS011;1458;49.728;9.228;2023-07-31T11:10:50;12.17;;;11.77;;
2896;SDS011;1458;49.728;9.228;2023-07-31T11:13:31;11.83;;;11.53;;
2896;SDS011;1458;49.728;9.228;2023-07-31T11:16:01;11.60;;;11.30;;
2896;SDS011;1458;49.728;9.228;2023-07-31T11:18:29;12.23;;;11.83;;
2896;SDS011;1458;49.728;9.228;2023-07-31T11:20:57;12.33;;;11.93;;
2896;SDS011;1458;49.728;9.228;2023-07-31T11:23:24;12.40;;;12.00;;
2896;SDS011;1458;49.728;9.228;2023-07-31T11:25:51;12.20;;;11.80;;
2896;SDS011;1458;49.728;9.228;2023-07-31T11:28:19;12.03;;;11.67;;
2896;SDS011;1458;49.728;9.228;2023-07-31T11:30:46;11.97;;;11.63;;
2896;SDS011;1458;49.728;9.228;2023-07-31T11:33:15;11.70;;;11.40;;
2896;SDS011;1458;49.728;9.228;2023-07-31T11:35:43;11.80;;;11.50;;
2896;SDS011;1458;49.728;9.228;2023-07-31T11:38:20;12.17;;;11.77;;
2896;SDS011;1458;49.728;9.228;2023-07-31T11:40:50;11.70;;;11.40;;
2896;SDS011;1458;49.728;9.228;2023-07-31T11:43:18;11.70;;;11.40;;
2896;SDS011;1458;49.728;9.228;2023-07-31T11:45:47;11.73;;;11.43;;
2896;SDS011;1458;49.728;9.228;2023-07-31T11:48:21;11.30;;;11.00;;
2896;SDS011;1458;49.728;9.228;2023-07-31T11:50:52;11.70;;;11.40;;
2896;SDS011;1458;49.728;9.228;2023-07-31T11:53:25;11.40;;;11.10;;
2896;SDS011;1458;49.728;9.228;2023-07-31T11:55:57;11.50;;;11.20;;
2896;SDS011;1458;49.728;9.228;2023-07-31T11:58:25;11.50;;;11.20;;
2896;SDS011;1458;49.728;9.228;2023-07-31T12:00:54;11.73;;;11.43;;
2896;SDS011;1458;49.728;9.228;2023-07-31T12:03:25;12.30;;;11.90;;
2896;SDS011;1458;49.728;9.228;2023-07-31T12:05:53;12.30;;;11.90;;
2896;SDS011;1458;49.728;9.228;2023-07-31T12:08:21;12.33;;;11.93;;
2896;SDS011;1458;49.728;9.228;2023-07-31T12:10:50;11.90;;;11.60;;
2896;SDS011;1458;49.728;9.228;2023-07-31T12:13:20;11.60;;;11.30;;
2896;SDS011;1458;49.728;9.228;2023-07-31T12:15:48;11.90;;;11.60;;
2896;SDS011;1458;49.728;9.228;2023-07-31T12:18:21;11.50;;;11.20;;
2896;SDS011;1458;49.728;9.228;2023-07-31T12:20:53;11.70;;;11.40;;
2896;SDS011;1458;49.728;9.228;2023-07-31T12:23:23;11.70;;;11.40;;
2896;SDS011;1458;49.728;9.228;2023-07-31T12:26:00;11.00;;;10.70;;
2896;SDS011;1458;49.728;9.228;2023-07-31T12:28:29;10.77;;;10.47;;
2896;SDS011;1458;49.728;9.228;2023-07-31T12:31:00;10.00;;;9.80;;
2896;SDS011;1458;49.728;9.228;2023-07-31T12:33:30;10.87;;;10.57;;
2896;SDS011;1458;49.728;9.228;2023-07-31T12:36:00;11.10;;;10.80;;
2896;SDS011;1458;49.728;9.228;2023-07-31T12:38:29;11.00;;;10.70;;
2896;SDS011;1458;49.728;9.228;2023-07-31T12:40:57;11.33;;;11.03;;
2896;SDS011;1458;49.728;9.228;2023-07-31T12:43:25;11.40;;;11.10;;
2896;SDS011;1458;49.728;9.228;2023-07-31T12:45:54;11.60;;;11.30;;
2896;SDS011;1458;49.728;9.228;2023-07-31T12:48:22;11.20;;;10.90;;
2896;SDS011;1458;49.728;9.228;2023-07-31T12:50:49;11.10;;;10.80;;
2896;SDS011;1458;49.728;9.228;2023-07-31T12:53:18;11.23;;;10.93;;
2896;SDS011;1458;49.728;9.228;2023-07-31T12:55:46;11.60;;;11.30;;
2896;SDS011;1458;49.728;9.228;2023-07-31T12:58:13;11.23;;;10.93;;
2896;SDS011;1458;49.728;9.228;2023-07-31T13:00:41;11.30;;;11.00;;
2896;SDS011;1458;49.728;9.228;2023-07-31T13:03:09;11.50;;;11.20;;
2896;SDS011;1458;49.728;9.228;2023-07-31T13:05:37;11.60;;;11.30;;
2896;SDS011;1458;49.728;9.228;2023-07-31T13:08:05;12.47;;;12.07;;
2896;SDS011;1458;49.728;9.228;2023-07-31T13:10:34;11.90;;;11.60;;
2896;SDS011;1458;49.728;9.228;2023-07-31T13:13:01;12.37;;;11.97;;
2896;SDS011;1458;49.728;9.228;2023-07-31T13:15:28;12.20;;;11.80;;
2896;SDS011;1458;49.728;9.228;2023-07-31T13:17:56;12.07;;;11.70;;
2896;SDS011;1458;49.728;9.228;2023-07-31T13:20:24;12.30;;;11.90;;
2896;SDS011;1458;49.728;9.228;2023-07-31T13:22:52;12.13;;;11.73;;
2896;SDS011;1458;49.728;9.228;2023-07-31T13:25:19;11.97;;;11.67;;
2896;SDS011;1458;49.728;9.228;2023-07-31T13:27:48;11.60;;;11.30;;
2896;SDS011;1458;49.728;9.228;2023-07-31T13:30:16;12.23;;;11.83;;
2896;SDS011;1458;49.728;9.228;2023-07-31T13:32:43;11.83;;;11.53;;
2896;SDS011;1458;49.728;9.228;2023-07-31T13:35:11;12.10;;;11.70;;
2896;SDS011;1458;49.728;9.228;2023-07-31T13:37:38;12.10;;;11.70;;
2896;SDS011;1458;49.728;9.228;2023-07-31T13:40:06;12.10;;;11.70;;
2896;SDS011;1458;49.728;9.228;2023-07-31T13:42:35;12.20;;;11.80;;
2896;SDS011;1458;49.728;9.228;2023-07-31T13:45:04;12.20;;;11.80;;
2896;SDS011;1458;49.728;9.228;2023-07-31T13:47:33;12.20;;;11.80;;
2896;SDS011;1458;49.728;9.228;2023-07-31T13:50:02;12.30;;;11.90;;
2896;SDS011;1458;49.728;9.228;2023-07-31T13:52:30;12.53;;;12.13;;
2896;SDS011;1458;49.728;9.228;2023-07-31T13:54:58;12.00;;;11.60;;
2896;SDS011;1458;49.728;9.228;2023-07-31T13:57:26;12.30;;;11.90;;
2896;SDS011;1458;49.728;9.228;2023-07-31T13:59:53;12.47;;;12.07;;
2896;SDS011;1458;49.728;9.228;2023-07-31T14:02:22;12.47;;;12.07;;
2896;SDS011;1458;49.728;9.228;2023-07-31T14:04:49;12.30;;;11.90;;
2896;SDS011;1458;49.728;9.228;2023-07-31T14:07:17;12.60;;;12.20;;
2896;SDS011;1458;49.728;9.228;2023-07-31T14:09:44;11.90;;;11.60;;
2896;SDS011;1458;49.728;9.228;2023-07-31T14:12:12;11.87;;;11.57;;
2896;SDS011;1458;49.728;9.228;2023-07-31T14:14:39;11.93;;;11.63;;
2896;SDS011;1458;49.728;9.228;2023-07-31T14:17:07;12.47;;;12.07;;
2896;SDS011;1458;49.728;9.228;2023-07-31T14:19:35;12.10;;;11.70;;
2896;SDS011;1458;49.728;9.228;2023-07-31T14:22:04;12.33;;;11.93;;
2896;SDS011;1458;49.728;9.228;2023-07-31T14:24:32;12.27;;;11.87;;
2896;SDS011;1458;49.728;9.228;2023-07-31T14:26:59;11.97;;;11.63;;
2896;SDS011;1458;49.728;9.228;2023-07-31T14:29:27;12.00;;;11.60;;
2896;SDS011;1458;49.728;9.228;2023-07-31T14:31:55;12.47;;;12.07;;
2896;SDS011;1458;49.728;9.228;2023-07-31T14:34:23;12.20;;;11.80;;
2896;SDS011;1458;49.728;9.228;2023-07-31T14:36:52;12.20;;;11.80;;
2896;SDS011;1458;49.728;9.228;2023-07-31T14:39:19;12.20;;;11.80;;
2896;SDS011;1458;49.728;9.228;2023-07-31T14:41:47;12.20;;;11.80;;
2896;SDS011;1458;49.728;9.228;2023-07-31T14:44:14;12.53;;;12.13;;
2896;SDS011;1458;49.728;9.228;2023-07-31T14:46:42;12.53;;;12.13;;
2896;SDS011;1458;49.728;9.228;2023-07-31T14:49:09;12.10;;;11.70;;
2896;SDS011;1458;49.728;9.228;2023-07-31T14:51:37;12.20;;;11.80;;
2896;SDS011;1458;49.728;9.228;2023-07-31T14:54:06;11.97;;;11.60;;
2896;SDS011;1458;49.728;9.228;2023-07-31T14:56:33;12.57;;;12.17;;
2896;SDS011;1458;49.728;9.228;2023-07-31T14:59:00;11.40;;;11.10;;
2896;SDS011;1458;49.728;9.228;2023-07-31T15:01:28;11.73;;;11.43;;
2896;SDS011;1458;49.728;9.228;2023-07-31T15:03:55;11.73;;;11.43;;
2896;SDS011;1458;49.728;9.228;2023-07-31T15:06:23;11.60;;;11.30;;
2896;SDS011;1458;49.728;9.228;2023-07-31T15:08:50;11.77;;;11.47;;
2896;SDS011;1458;49.728;9.228;2023-07-31T15:11:19;11.50;;;11.20;;
2896;SDS011;1458;49.728;9.228;2023-07-31T15:13:46;11.50;;;11.20;;
2896;SDS011;1458;49.728;9.228;2023-07-31T15:16:14;11.40;;;11.10;;